RYR3878 EDLV-LCPH
Flight info
| Callsign | RYR3878 |
|---|---|
| Flight time | 3h 34m |
| Altitude | 37000 |
| Route | ERKUM1R ERKUM L179 LUSIX DCT ONUNE DCT GMH DCT ESAMA DCT OSBIT DCT TENLO DCT LAMSI DCT NIDLO DCT VABEK UL603 OLOTA DCT DISOR DCT MES UL609 RDS UM601 EVENO DCT DASNI/N0466F330 DCT TOBAL |
| Aircraft | B38M/M-SDE1FGHILORVWXY/HB1 |
Departure
| Time | 2026-04-30 07:36 |
|---|---|
| Airport | Weeze (Niederrhein) Airport (EDLV) |
Arrival
| Time | 2026-04-30 11:11 |
|---|---|
| Airport | Paphos International Airport (LCPH) |
| Time | Latitude | Longitude | Altitude | Speed | Heading |
|---|---|---|---|---|---|
| 2026-04-30 07:12 | 51.59956 | 6.14864 | 115 ft | 0 kts | 89° |
| 2026-04-30 07:28 | 51.59956 | 6.14849 | 116 ft | 4 kts | 91° |
| 2026-04-30 07:29 | 51.59960 | 6.14809 | 114 ft | 4 kts | 125° |
| 2026-04-30 07:29 | 51.59975 | 6.14797 | 112 ft | 4 kts | 180° |
| 2026-04-30 07:29 | 51.60001 | 6.14800 | 113 ft | 3 kts | 180° |
| 2026-04-30 07:29 | 51.60021 | 6.14802 | 112 ft | 4 kts | 196° |
| 2026-04-30 07:30 | 51.60044 | 6.14864 | 116 ft | 3 kts | 271° |
| 2026-04-30 07:30 | 51.60044 | 6.14871 | 116 ft | 0 kts | 271° |
| 2026-04-30 07:32 | 51.60044 | 6.14835 | 114 ft | 9 kts | 272° |
| 2026-04-30 07:32 | 51.60048 | 6.14684 | 113 ft | 17 kts | 271° |
| 2026-04-30 07:32 | 51.60048 | 6.14485 | 113 ft | 18 kts | 272° |
| 2026-04-30 07:33 | 51.60053 | 6.14268 | 115 ft | 21 kts | 272° |
| 2026-04-30 07:33 | 51.60059 | 6.14019 | 117 ft | 23 kts | 272° |
| 2026-04-30 07:33 | 51.60064 | 6.13761 | 114 ft | 24 kts | 272° |
| 2026-04-30 07:33 | 51.60070 | 6.13481 | 116 ft | 26 kts | 272° |
| 2026-04-30 07:34 | 51.60078 | 6.13171 | 114 ft | 29 kts | 272° |
| 2026-04-30 07:34 | 51.60085 | 6.12829 | 112 ft | 32 kts | 271° |
| 2026-04-30 07:34 | 51.60091 | 6.12523 | 114 ft | 18 kts | 272° |
| 2026-04-30 07:34 | 51.60104 | 6.12467 | 112 ft | 4 kts | 316° |
| 2026-04-30 07:35 | 51.60144 | 6.12456 | 113 ft | 9 kts | 3° |
| 2026-04-30 07:35 | 51.60217 | 6.12463 | 115 ft | 5 kts | 2° |
| 2026-04-30 07:35 | 51.60257 | 6.12465 | 116 ft | 6 kts | 2° |
| 2026-04-30 07:35 | 51.60283 | 6.12481 | 116 ft | 2 kts | 55° |
| 2026-04-30 07:36 | 51.60283 | 6.12531 | 115 ft | 14 kts | 94° |
| 2026-04-30 07:36 | 51.60268 | 6.13128 | 115 ft | 91 kts | 92° |
| 2026-04-30 07:36 | 51.60239 | 6.14489 | 123 ft | 153 kts | 92° |
| 2026-04-30 07:36 | 51.60179 | 6.16342 | 775 ft | 170 kts | 95° |
| 2026-04-30 07:37 | 51.60074 | 6.18204 | 1808 ft | 170 kts | 97° |
| 2026-04-30 07:37 | 51.60104 | 6.20134 | 2797 ft | 176 kts | 89° |
| 2026-04-30 07:37 | 51.60315 | 6.22102 | 3749 ft | 181 kts | 79° |
| 2026-04-30 07:37 | 51.60709 | 6.24049 | 4639 ft | 188 kts | 69° |
| 2026-04-30 07:38 | 51.61284 | 6.26116 | 4997 ft | 224 kts | 71° |
| 2026-04-30 07:38 | 51.61741 | 6.28718 | 5299 ft | 258 kts | 78° |
| 2026-04-30 07:38 | 51.62186 | 6.31658 | 6024 ft | 274 kts | 77° |
| 2026-04-30 07:38 | 51.62678 | 6.34627 | 7171 ft | 281 kts | 77° |
| 2026-04-30 07:39 | 51.62980 | 6.37832 | 7772 ft | 300 kts | 92° |
| 2026-04-30 07:39 | 51.62857 | 6.41274 | 8422 ft | 317 kts | 92° |
| 2026-04-30 07:39 | 51.62748 | 6.44916 | 9062 ft | 333 kts | 92° |
| 2026-04-30 07:39 | 51.62636 | 6.48713 | 9734 ft | 346 kts | 92° |
| 2026-04-30 07:40 | 51.62518 | 6.52652 | 10402 ft | 358 kts | 92° |
| 2026-04-30 07:40 | 51.62396 | 6.56709 | 11007 ft | 368 kts | 92° |
| 2026-04-30 07:40 | 51.62270 | 6.60874 | 11670 ft | 375 kts | 92° |
| 2026-04-30 07:40 | 51.62008 | 6.65018 | 12397 ft | 381 kts | 102° |
| 2026-04-30 07:41 | 51.61063 | 6.69011 | 13193 ft | 385 kts | 115° |
| 2026-04-30 07:41 | 51.59821 | 6.72831 | 14013 ft | 385 kts | 115° |
| 2026-04-30 07:41 | 51.58576 | 6.76636 | 14798 ft | 385 kts | 115° |
| 2026-04-30 07:41 | 51.57324 | 6.80446 | 15544 ft | 386 kts | 115° |
| 2026-04-30 07:42 | 51.56067 | 6.84258 | 16317 ft | 385 kts | 115° |
| 2026-04-30 07:42 | 51.54797 | 6.88108 | 16820 ft | 393 kts | 115° |
| 2026-04-30 07:42 | 51.53505 | 6.92019 | 17364 ft | 398 kts | 115° |
| 2026-04-30 07:42 | 51.52198 | 6.95969 | 17909 ft | 403 kts | 115° |
| 2026-04-30 07:43 | 51.50878 | 6.99950 | 18480 ft | 407 kts | 115° |
| 2026-04-30 07:43 | 51.49537 | 7.03990 | 18996 ft | 411 kts | 115° |
| 2026-04-30 07:43 | 51.48203 | 7.07999 | 19489 ft | 415 kts | 115° |
| 2026-04-30 07:43 | 51.46822 | 7.12144 | 20008 ft | 418 kts | 115° |
| 2026-04-30 07:44 | 51.45465 | 7.16210 | 20533 ft | 421 kts | 115° |
| 2026-04-30 07:44 | 51.44077 | 7.20359 | 21055 ft | 423 kts | 115° |
| 2026-04-30 07:44 | 51.42681 | 7.24531 | 21597 ft | 425 kts | 115° |
| 2026-04-30 07:44 | 51.41277 | 7.28715 | 22145 ft | 427 kts | 115° |
| 2026-04-30 07:45 | 51.39860 | 7.32932 | 22451 ft | 435 kts | 115° |
| 2026-04-30 07:45 | 51.38411 | 7.37237 | 22750 ft | 440 kts | 115° |
| 2026-04-30 07:45 | 51.36931 | 7.41511 | 23491 ft | 438 kts | 120° |
| 2026-04-30 07:45 | 51.35228 | 7.45544 | 24208 ft | 436 kts | 121° |
| 2026-04-30 07:46 | 51.33538 | 7.49568 | 24724 ft | 436 kts | 121° |
| 2026-04-30 07:46 | 51.31857 | 7.53609 | 25235 ft | 436 kts | 120° |
| 2026-04-30 07:46 | 51.30184 | 7.57650 | 25767 ft | 435 kts | 120° |
| 2026-04-30 07:46 | 51.28523 | 7.61668 | 26288 ft | 434 kts | 120° |
| 2026-04-30 07:47 | 51.27421 | 7.64326 | 26645 ft | 433 kts | 120° |
| 2026-04-30 07:47 | 51.25755 | 7.68344 | 27058 ft | 436 kts | 120° |
| 2026-04-30 07:47 | 51.24071 | 7.72398 | 27354 ft | 441 kts | 120° |
| 2026-04-30 07:47 | 51.22368 | 7.76492 | 27660 ft | 445 kts | 120° |
| 2026-04-30 07:48 | 51.20650 | 7.80617 | 27962 ft | 449 kts | 120° |
| 2026-04-30 07:48 | 51.18915 | 7.84778 | 28292 ft | 452 kts | 120° |
| 2026-04-30 07:48 | 51.17011 | 7.88801 | 28571 ft | 461 kts | 131° |
| 2026-04-30 07:48 | 51.14510 | 7.92085 | 28913 ft | 468 kts | 139° |
| 2026-04-30 07:49 | 51.11918 | 7.95248 | 29233 ft | 471 kts | 138° |
| 2026-04-30 07:49 | 51.09305 | 7.98406 | 29575 ft | 473 kts | 139° |
| 2026-04-30 07:49 | 51.06666 | 8.01558 | 29918 ft | 474 kts | 139° |
| 2026-04-30 07:49 | 51.04025 | 8.04695 | 30258 ft | 475 kts | 139° |
| 2026-04-30 07:50 | 51.01378 | 8.07828 | 30592 ft | 475 kts | 139° |
| 2026-04-30 07:50 | 50.98784 | 8.10975 | 30883 ft | 472 kts | 135° |
| 2026-04-30 07:50 | 50.96523 | 8.14679 | 31151 ft | 463 kts | 123° |
| 2026-04-30 07:50 | 50.94546 | 8.18699 | 31448 ft | 463 kts | 124° |
| 2026-04-30 07:51 | 50.92487 | 8.22633 | 31754 ft | 463 kts | 125° |
| 2026-04-30 07:51 | 50.90418 | 8.26539 | 32045 ft | 462 kts | 125° |
| 2026-04-30 07:51 | 50.88348 | 8.30422 | 32361 ft | 461 kts | 125° |
| 2026-04-30 07:51 | 50.86275 | 8.34300 | 32655 ft | 460 kts | 125° |
| 2026-04-30 07:52 | 50.84204 | 8.38167 | 32960 ft | 459 kts | 125° |
| 2026-04-30 07:52 | 50.82140 | 8.42016 | 33262 ft | 458 kts | 125° |
| 2026-04-30 07:52 | 50.80080 | 8.45850 | 33599 ft | 457 kts | 125° |
| 2026-04-30 07:52 | 50.78025 | 8.49672 | 33940 ft | 456 kts | 125° |
| 2026-04-30 07:53 | 50.75960 | 8.53503 | 34261 ft | 455 kts | 125° |
| 2026-04-30 07:53 | 50.73911 | 8.57301 | 34567 ft | 454 kts | 125° |
| 2026-04-30 07:53 | 50.71865 | 8.61087 | 34838 ft | 453 kts | 125° |
| 2026-04-30 07:53 | 50.69822 | 8.64861 | 35110 ft | 452 kts | 125° |
| 2026-04-30 07:54 | 50.67782 | 8.68626 | 35401 ft | 451 kts | 125° |
| 2026-04-30 07:54 | 50.65742 | 8.72384 | 35689 ft | 450 kts | 125° |
| 2026-04-30 07:54 | 50.63706 | 8.76130 | 35965 ft | 450 kts | 125° |
| 2026-04-30 07:54 | 50.61673 | 8.79864 | 36261 ft | 449 kts | 126° |
| 2026-04-30 07:55 | 50.59641 | 8.83591 | 36545 ft | 448 kts | 126° |
| 2026-04-30 07:55 | 50.57642 | 8.87253 | 36853 ft | 446 kts | 126° |
| 2026-04-30 07:55 | 50.55618 | 8.90956 | 37159 ft | 445 kts | 126° |
| 2026-04-30 07:55 | 50.53601 | 8.94640 | 37428 ft | 444 kts | 126° |
| 2026-04-30 07:56 | 50.51578 | 8.98329 | 37471 ft | 448 kts | 126° |
| 2026-04-30 07:56 | 50.47473 | 9.05797 | 37435 ft | 454 kts | 126° |
| 2026-04-30 07:57 | 50.43429 | 9.13444 | 37439 ft | 455 kts | 123° |
| 2026-04-30 07:57 | 50.39452 | 9.21165 | 37432 ft | 455 kts | 124° |
| 2026-04-30 07:58 | 50.35460 | 9.28867 | 37441 ft | 456 kts | 124° |
| 2026-04-30 07:58 | 50.31446 | 9.36582 | 37431 ft | 457 kts | 124° |
| 2026-04-30 07:59 | 50.27424 | 9.44292 | 37423 ft | 457 kts | 124° |
| 2026-04-30 07:59 | 50.23423 | 9.51938 | 37426 ft | 457 kts | 124° |
| 2026-04-30 08:00 | 50.17383 | 9.63441 | 37414 ft | 457 kts | 124° |
| 2026-04-30 08:00 | 50.13339 | 9.71113 | 37419 ft | 459 kts | 124° |
| 2026-04-30 08:01 | 50.09282 | 9.78788 | 37417 ft | 459 kts | 124° |
| 2026-04-30 08:01 | 50.05216 | 9.86456 | 37420 ft | 459 kts | 124° |
| 2026-04-30 08:02 | 49.99107 | 9.97937 | 37443 ft | 459 kts | 124° |
| 2026-04-30 08:03 | 49.90943 | 10.13201 | 37448 ft | 460 kts | 124° |
| 2026-04-30 08:04 | 49.86846 | 10.20827 | 37443 ft | 460 kts | 124° |
| 2026-04-30 08:04 | 49.82746 | 10.28437 | 37442 ft | 460 kts | 124° |
| 2026-04-30 08:05 | 49.78667 | 10.35986 | 37446 ft | 460 kts | 124° |
| 2026-04-30 08:05 | 49.74550 | 10.43582 | 37462 ft | 460 kts | 124° |
| 2026-04-30 08:06 | 49.70427 | 10.51168 | 37443 ft | 461 kts | 124° |
| 2026-04-30 08:06 | 49.66297 | 10.58747 | 37432 ft | 461 kts | 124° |
| 2026-04-30 08:07 | 49.62157 | 10.66318 | 37437 ft | 462 kts | 124° |
| 2026-04-30 08:07 | 49.58009 | 10.73886 | 37443 ft | 462 kts | 124° |
| 2026-04-30 08:08 | 49.53859 | 10.81432 | 37478 ft | 462 kts | 124° |
| 2026-04-30 08:08 | 49.49717 | 10.88944 | 37457 ft | 463 kts | 124° |
| 2026-04-30 08:09 | 49.45543 | 10.96493 | 37455 ft | 463 kts | 124° |
| 2026-04-30 08:09 | 49.41363 | 11.04031 | 37452 ft | 463 kts | 124° |
| 2026-04-30 08:10 | 49.37178 | 11.11556 | 37450 ft | 463 kts | 125° |
| 2026-04-30 08:10 | 49.32996 | 11.19052 | 37480 ft | 463 kts | 125° |
| 2026-04-30 08:11 | 49.28789 | 11.26574 | 37422 ft | 465 kts | 125° |
| 2026-04-30 08:11 | 49.24564 | 11.34104 | 37429 ft | 466 kts | 125° |
| 2026-04-30 08:12 | 49.20366 | 11.41566 | 37425 ft | 466 kts | 125° |
| 2026-04-30 08:12 | 49.16137 | 11.49062 | 37432 ft | 466 kts | 125° |
| 2026-04-30 08:13 | 49.11901 | 11.56548 | 37457 ft | 466 kts | 125° |
| 2026-04-30 08:13 | 49.07644 | 11.64052 | 37431 ft | 468 kts | 125° |
| 2026-04-30 08:14 | 49.03373 | 11.71557 | 37427 ft | 468 kts | 125° |
| 2026-04-30 08:14 | 48.99099 | 11.79046 | 37421 ft | 468 kts | 126° |
| 2026-04-30 08:15 | 48.94825 | 11.86515 | 37427 ft | 468 kts | 126° |
| 2026-04-30 08:15 | 48.90545 | 11.93973 | 37456 ft | 468 kts | 126° |
| 2026-04-30 08:16 | 48.86274 | 12.01393 | 37421 ft | 470 kts | 126° |
| 2026-04-30 08:16 | 48.81953 | 12.08878 | 37424 ft | 470 kts | 126° |
| 2026-04-30 08:17 | 48.77636 | 12.16336 | 37419 ft | 470 kts | 126° |
| 2026-04-30 08:17 | 48.73310 | 12.23790 | 37420 ft | 470 kts | 126° |
| 2026-04-30 08:18 | 48.68981 | 12.31227 | 37430 ft | 472 kts | 126° |
| 2026-04-30 08:18 | 48.64626 | 12.38687 | 37420 ft | 473 kts | 126° |
| 2026-04-30 08:19 | 48.60287 | 12.46099 | 37425 ft | 475 kts | 126° |
| 2026-04-30 08:19 | 48.55900 | 12.53570 | 37413 ft | 475 kts | 126° |
| 2026-04-30 08:20 | 48.51508 | 12.61030 | 37423 ft | 475 kts | 126° |
| 2026-04-30 08:20 | 48.47108 | 12.68483 | 37418 ft | 476 kts | 126° |
| 2026-04-30 08:21 | 48.42704 | 12.75922 | 37415 ft | 476 kts | 126° |
| 2026-04-30 08:21 | 48.38292 | 12.83353 | 37418 ft | 476 kts | 127° |
| 2026-04-30 08:22 | 48.33879 | 12.90762 | 37409 ft | 476 kts | 127° |
| 2026-04-30 08:22 | 48.29448 | 12.98183 | 37445 ft | 477 kts | 127° |
| 2026-04-30 08:23 | 48.25024 | 13.05573 | 37416 ft | 479 kts | 127° |
| 2026-04-30 08:23 | 48.20560 | 13.13006 | 37414 ft | 479 kts | 127° |
| 2026-04-30 08:24 | 48.16090 | 13.20431 | 37415 ft | 479 kts | 127° |
| 2026-04-30 08:24 | 48.11643 | 13.27795 | 37413 ft | 479 kts | 127° |
| 2026-04-30 08:25 | 48.07160 | 13.35197 | 37423 ft | 481 kts | 127° |
| 2026-04-30 08:25 | 48.02672 | 13.42588 | 37407 ft | 481 kts | 127° |
| 2026-04-30 08:26 | 47.98164 | 13.49991 | 37410 ft | 481 kts | 127° |
| 2026-04-30 08:26 | 47.93663 | 13.57362 | 37410 ft | 481 kts | 127° |
| 2026-04-30 08:27 | 47.89144 | 13.64742 | 37392 ft | 481 kts | 128° |
| 2026-04-30 08:27 | 47.84652 | 13.72057 | 37414 ft | 482 kts | 128° |
| 2026-04-30 08:28 | 47.80088 | 13.79468 | 37398 ft | 483 kts | 128° |
| 2026-04-30 08:28 | 47.75564 | 13.86795 | 37394 ft | 484 kts | 128° |
| 2026-04-30 08:29 | 47.71008 | 13.94153 | 37398 ft | 484 kts | 128° |
| 2026-04-30 08:29 | 47.66435 | 14.01517 | 37409 ft | 485 kts | 128° |
| 2026-04-30 08:30 | 47.61856 | 14.08872 | 37411 ft | 485 kts | 128° |
| 2026-04-30 08:30 | 47.57269 | 14.16218 | 37386 ft | 485 kts | 128° |
| 2026-04-30 08:31 | 47.52675 | 14.23554 | 37413 ft | 487 kts | 129° |
| 2026-04-30 08:31 | 47.48065 | 14.30898 | 37378 ft | 486 kts | 129° |
| 2026-04-30 08:32 | 47.43457 | 14.38216 | 37383 ft | 487 kts | 129° |
| 2026-04-30 08:32 | 47.38832 | 14.45543 | 37376 ft | 488 kts | 129° |
| 2026-04-30 08:33 | 47.34232 | 14.52808 | 37384 ft | 488 kts | 129° |
| 2026-04-30 08:33 | 47.29588 | 14.60123 | 37366 ft | 488 kts | 129° |
| 2026-04-30 08:34 | 47.24949 | 14.67409 | 37383 ft | 489 kts | 130° |
| 2026-04-30 08:34 | 47.20286 | 14.74714 | 37381 ft | 489 kts | 130° |
| 2026-04-30 08:35 | 47.15624 | 14.81997 | 37370 ft | 489 kts | 130° |
| 2026-04-30 08:35 | 47.10967 | 14.89253 | 37370 ft | 489 kts | 130° |
| 2026-04-30 08:36 | 47.06325 | 14.96465 | 37404 ft | 489 kts | 131° |
| 2026-04-30 08:36 | 47.01642 | 15.03722 | 37389 ft | 490 kts | 131° |
| 2026-04-30 08:37 | 46.96947 | 15.10977 | 37421 ft | 491 kts | 131° |
| 2026-04-30 08:37 | 46.92242 | 15.18228 | 37415 ft | 490 kts | 131° |
| 2026-04-30 08:38 | 46.88332 | 15.24238 | 37421 ft | 491 kts | 131° |
| 2026-04-30 08:38 | 46.83621 | 15.31461 | 37426 ft | 492 kts | 132° |
| 2026-04-30 08:39 | 46.78892 | 15.38693 | 37425 ft | 492 kts | 132° |
| 2026-04-30 08:39 | 46.74156 | 15.45918 | 37418 ft | 492 kts | 133° |
| 2026-04-30 08:40 | 46.69411 | 15.53134 | 37422 ft | 493 kts | 133° |
| 2026-04-30 08:40 | 46.64654 | 15.60348 | 37437 ft | 494 kts | 133° |
| 2026-04-30 08:41 | 46.59873 | 15.67581 | 37427 ft | 496 kts | 133° |
| 2026-04-30 08:41 | 46.55089 | 15.74797 | 37428 ft | 496 kts | 133° |
| 2026-04-30 08:42 | 46.50300 | 15.82004 | 37427 ft | 496 kts | 133° |
| 2026-04-30 08:42 | 46.45531 | 15.89159 | 37423 ft | 498 kts | 133° |
| 2026-04-30 08:43 | 46.40701 | 15.96387 | 37423 ft | 499 kts | 133° |
| 2026-04-30 08:43 | 46.35871 | 16.03593 | 37426 ft | 499 kts | 133° |
| 2026-04-30 08:44 | 46.31032 | 16.10796 | 37420 ft | 499 kts | 133° |
| 2026-04-30 08:44 | 46.26191 | 16.17981 | 37444 ft | 499 kts | 133° |
| 2026-04-30 08:45 | 46.21335 | 16.25170 | 37409 ft | 501 kts | 133° |
| 2026-04-30 08:45 | 46.16443 | 16.32392 | 37425 ft | 504 kts | 133° |
| 2026-04-30 08:46 | 46.11535 | 16.39618 | 37425 ft | 504 kts | 133° |
| 2026-04-30 08:46 | 46.06623 | 16.46830 | 37419 ft | 504 kts | 133° |
| 2026-04-30 08:47 | 46.01702 | 16.54038 | 37415 ft | 505 kts | 133° |
| 2026-04-30 08:47 | 45.96794 | 16.61205 | 37414 ft | 505 kts | 134° |
| 2026-04-30 08:48 | 45.91860 | 16.68392 | 37413 ft | 505 kts | 134° |
| 2026-04-30 08:48 | 45.86911 | 16.75580 | 37408 ft | 505 kts | 134° |
| 2026-04-30 08:49 | 45.81962 | 16.82749 | 37402 ft | 505 kts | 134° |
| 2026-04-30 08:49 | 45.77047 | 16.89851 | 37398 ft | 505 kts | 134° |
| 2026-04-30 08:50 | 45.72091 | 16.96992 | 37402 ft | 505 kts | 134° |
| 2026-04-30 08:50 | 45.67127 | 17.04125 | 37377 ft | 505 kts | 134° |
| 2026-04-30 08:51 | 45.62160 | 17.11245 | 37389 ft | 506 kts | 135° |
| 2026-04-30 08:51 | 45.57184 | 17.18359 | 37388 ft | 506 kts | 135° |
| 2026-04-30 08:52 | 45.52237 | 17.25412 | 37380 ft | 506 kts | 135° |
| 2026-04-30 08:52 | 45.47250 | 17.32503 | 37379 ft | 506 kts | 135° |
| 2026-04-30 08:53 | 45.42253 | 17.39589 | 37381 ft | 506 kts | 135° |
| 2026-04-30 08:53 | 45.37258 | 17.46655 | 37369 ft | 506 kts | 135° |
| 2026-04-30 08:54 | 45.32263 | 17.53701 | 37376 ft | 506 kts | 135° |
| 2026-04-30 08:54 | 45.27257 | 17.60745 | 37371 ft | 506 kts | 135° |
| 2026-04-30 08:55 | 45.22251 | 17.67770 | 37371 ft | 506 kts | 136° |
| 2026-04-30 08:55 | 45.17239 | 17.74785 | 37344 ft | 506 kts | 136° |
| 2026-04-30 08:56 | 45.12221 | 17.81789 | 37367 ft | 507 kts | 136° |
| 2026-04-30 08:56 | 45.07221 | 17.88752 | 37366 ft | 507 kts | 136° |
| 2026-04-30 08:57 | 45.02194 | 17.95733 | 37368 ft | 507 kts | 136° |
| 2026-04-30 08:57 | 44.97151 | 18.02718 | 37371 ft | 507 kts | 136° |
| 2026-04-30 08:58 | 44.92103 | 18.09692 | 37366 ft | 507 kts | 136° |
| 2026-04-30 08:58 | 44.87047 | 18.16658 | 37367 ft | 508 kts | 137° |
| 2026-04-30 08:59 | 44.81978 | 18.23625 | 37362 ft | 509 kts | 137° |
| 2026-04-30 08:59 | 44.76906 | 18.30579 | 37355 ft | 509 kts | 137° |
| 2026-04-30 09:00 | 44.71830 | 18.37518 | 37355 ft | 509 kts | 137° |
| 2026-04-30 09:00 | 44.66745 | 18.44452 | 37367 ft | 509 kts | 137° |
| 2026-04-30 09:01 | 44.61646 | 18.51389 | 37345 ft | 512 kts | 137° |
| 2026-04-30 09:01 | 44.56525 | 18.58336 | 37344 ft | 512 kts | 137° |
| 2026-04-30 09:02 | 44.48876 | 18.68680 | 37344 ft | 512 kts | 138° |
| 2026-04-30 09:02 | 44.43749 | 18.75592 | 37333 ft | 512 kts | 138° |
| 2026-04-30 09:03 | 44.38619 | 18.82489 | 37314 ft | 511 kts | 138° |
| 2026-04-30 09:03 | 44.33480 | 18.89382 | 37330 ft | 512 kts | 138° |
| 2026-04-30 09:04 | 44.28338 | 18.96261 | 37329 ft | 512 kts | 138° |
| 2026-04-30 09:04 | 44.23189 | 19.03131 | 37323 ft | 512 kts | 138° |
| 2026-04-30 09:05 | 44.18036 | 19.09989 | 37324 ft | 512 kts | 139° |
| 2026-04-30 09:05 | 44.12879 | 19.16835 | 37291 ft | 512 kts | 139° |
| 2026-04-30 09:06 | 44.07706 | 19.23685 | 37316 ft | 513 kts | 139° |
| 2026-04-30 09:06 | 44.02553 | 19.30491 | 37322 ft | 514 kts | 139° |
| 2026-04-30 09:07 | 43.97366 | 19.37324 | 37346 ft | 514 kts | 139° |
| 2026-04-30 09:07 | 43.92177 | 19.44144 | 37313 ft | 513 kts | 139° |
| 2026-04-30 09:08 | 43.86988 | 19.50946 | 37303 ft | 514 kts | 140° |
| 2026-04-30 09:08 | 43.81804 | 19.57725 | 37333 ft | 516 kts | 140° |
| 2026-04-30 09:09 | 43.76551 | 19.64575 | 37335 ft | 515 kts | 140° |
| 2026-04-30 09:09 | 43.71335 | 19.71362 | 37330 ft | 515 kts | 140° |
| 2026-04-30 09:10 | 43.66111 | 19.78140 | 37327 ft | 514 kts | 140° |
| 2026-04-30 09:10 | 43.60924 | 19.84855 | 37324 ft | 515 kts | 140° |
| 2026-04-30 09:11 | 43.55681 | 19.91624 | 37336 ft | 516 kts | 140° |
| 2026-04-30 09:11 | 43.50435 | 19.98381 | 37342 ft | 516 kts | 141° |
| 2026-04-30 09:12 | 43.45188 | 20.05122 | 37332 ft | 515 kts | 141° |
| 2026-04-30 09:12 | 43.39945 | 20.11843 | 37322 ft | 515 kts | 141° |
| 2026-04-30 09:13 | 43.34686 | 20.18565 | 37338 ft | 517 kts | 141° |
| 2026-04-30 09:13 | 43.29449 | 20.25243 | 37323 ft | 516 kts | 141° |
| 2026-04-30 09:14 | 43.24178 | 20.31949 | 37321 ft | 517 kts | 141° |
| 2026-04-30 09:14 | 43.18898 | 20.38649 | 37303 ft | 517 kts | 141° |
| 2026-04-30 09:15 | 43.13619 | 20.45331 | 37304 ft | 517 kts | 141° |
| 2026-04-30 09:15 | 43.08329 | 20.52012 | 37291 ft | 517 kts | 141° |
| 2026-04-30 09:16 | 43.03039 | 20.58676 | 37294 ft | 517 kts | 141° |
| 2026-04-30 09:16 | 42.97816 | 20.65438 | 37283 ft | 518 kts | 140° |
| 2026-04-30 09:17 | 42.92619 | 20.72241 | 37275 ft | 517 kts | 140° |
| 2026-04-30 09:17 | 42.87416 | 20.79026 | 37270 ft | 517 kts | 140° |
| 2026-04-30 09:18 | 42.82208 | 20.85799 | 37263 ft | 516 kts | 140° |
| 2026-04-30 09:18 | 42.77051 | 20.92490 | 37260 ft | 516 kts | 140° |
| 2026-04-30 09:19 | 42.71850 | 20.99222 | 37264 ft | 516 kts | 140° |
| 2026-04-30 09:19 | 42.66677 | 21.05902 | 37261 ft | 507 kts | 140° |
| 2026-04-30 09:20 | 42.61566 | 21.12485 | 37237 ft | 505 kts | 140° |
| 2026-04-30 09:20 | 42.56482 | 21.19019 | 37259 ft | 503 kts | 141° |
| 2026-04-30 09:21 | 42.51398 | 21.25537 | 37270 ft | 502 kts | 141° |
| 2026-04-30 09:21 | 42.46318 | 21.32034 | 37237 ft | 502 kts | 141° |
| 2026-04-30 09:22 | 42.41233 | 21.38523 | 37249 ft | 502 kts | 141° |
| 2026-04-30 09:22 | 42.36143 | 21.45003 | 37204 ft | 502 kts | 141° |
| 2026-04-30 09:23 | 42.31047 | 21.51476 | 37234 ft | 503 kts | 141° |
| 2026-04-30 09:23 | 42.25984 | 21.57895 | 37215 ft | 502 kts | 141° |
| 2026-04-30 09:24 | 42.20766 | 21.64232 | 37220 ft | 501 kts | 143° |
| 2026-04-30 09:24 | 42.15558 | 21.70384 | 37213 ft | 500 kts | 143° |
| 2026-04-30 09:25 | 42.10365 | 21.76524 | 37177 ft | 495 kts | 143° |
| 2026-04-30 09:25 | 42.05187 | 21.82632 | 37202 ft | 495 kts | 143° |
| 2026-04-30 09:26 | 42.00008 | 21.88728 | 37204 ft | 495 kts | 143° |
| 2026-04-30 09:26 | 41.95701 | 21.93787 | 37186 ft | 494 kts | 143° |
| 2026-04-30 09:27 | 41.90515 | 21.99867 | 37165 ft | 495 kts | 143° |
| 2026-04-30 09:27 | 41.85323 | 22.05941 | 37134 ft | 495 kts | 143° |
| 2026-04-30 09:28 | 41.80145 | 22.11982 | 37161 ft | 492 kts | 143° |
| 2026-04-30 09:28 | 41.74977 | 22.18001 | 37106 ft | 491 kts | 144° |
| 2026-04-30 09:29 | 41.69834 | 22.23976 | 37126 ft | 493 kts | 144° |
| 2026-04-30 09:29 | 41.64654 | 22.29981 | 37124 ft | 493 kts | 144° |
| 2026-04-30 09:30 | 41.59471 | 22.35977 | 37076 ft | 493 kts | 143° |
| 2026-04-30 09:30 | 41.54290 | 22.41957 | 37114 ft | 492 kts | 144° |
| 2026-04-30 09:31 | 41.49092 | 22.47944 | 37095 ft | 492 kts | 144° |
| 2026-04-30 09:31 | 41.43904 | 22.53905 | 37092 ft | 492 kts | 143° |
| 2026-04-30 09:32 | 41.38707 | 22.59864 | 37075 ft | 492 kts | 144° |
| 2026-04-30 09:32 | 41.33512 | 22.65808 | 37042 ft | 493 kts | 143° |
| 2026-04-30 09:33 | 41.28360 | 22.71693 | 37071 ft | 491 kts | 143° |
| 2026-04-30 09:33 | 41.23157 | 22.77553 | 37077 ft | 490 kts | 144° |
| 2026-04-30 09:34 | 41.17927 | 22.83361 | 37063 ft | 490 kts | 144° |
| 2026-04-30 09:34 | 41.12696 | 22.89166 | 37061 ft | 490 kts | 144° |
| 2026-04-30 09:35 | 41.07461 | 22.94963 | 37022 ft | 490 kts | 144° |
| 2026-04-30 09:35 | 41.02236 | 23.00737 | 37056 ft | 489 kts | 144° |
| 2026-04-30 09:36 | 40.97008 | 23.06502 | 37051 ft | 489 kts | 144° |
| 2026-04-30 09:36 | 40.91781 | 23.12253 | 37041 ft | 489 kts | 144° |
| 2026-04-30 09:37 | 40.86552 | 23.17995 | 37057 ft | 489 kts | 144° |
| 2026-04-30 09:37 | 40.81316 | 23.23733 | 37029 ft | 488 kts | 144° |
| 2026-04-30 09:38 | 40.76093 | 23.29443 | 37052 ft | 486 kts | 144° |
| 2026-04-30 09:38 | 40.70915 | 23.35093 | 37058 ft | 486 kts | 144° |
| 2026-04-30 09:39 | 40.65700 | 23.40770 | 37071 ft | 486 kts | 144° |
| 2026-04-30 09:39 | 40.60477 | 23.46446 | 37068 ft | 486 kts | 144° |
| 2026-04-30 09:40 | 40.55263 | 23.52100 | 37064 ft | 486 kts | 144° |
| 2026-04-30 09:40 | 40.50049 | 23.57740 | 37069 ft | 484 kts | 144° |
| 2026-04-30 09:41 | 40.44846 | 23.63358 | 37076 ft | 484 kts | 144° |
| 2026-04-30 09:41 | 40.39639 | 23.68969 | 37082 ft | 484 kts | 144° |
| 2026-04-30 09:42 | 40.34431 | 23.74569 | 37078 ft | 484 kts | 144° |
| 2026-04-30 09:42 | 40.29225 | 23.80155 | 37084 ft | 483 kts | 144° |
| 2026-04-30 09:43 | 40.24051 | 23.85696 | 37086 ft | 483 kts | 144° |
| 2026-04-30 09:43 | 40.18842 | 23.91263 | 37086 ft | 483 kts | 144° |
| 2026-04-30 09:44 | 40.13625 | 23.96827 | 37089 ft | 483 kts | 144° |
| 2026-04-30 09:44 | 40.08404 | 24.02384 | 37089 ft | 483 kts | 144° |
| 2026-04-30 09:45 | 40.03192 | 24.07920 | 37087 ft | 483 kts | 144° |
| 2026-04-30 09:45 | 39.97970 | 24.13456 | 37089 ft | 483 kts | 144° |
| 2026-04-30 09:46 | 39.92763 | 24.18964 | 37097 ft | 482 kts | 144° |
| 2026-04-30 09:46 | 39.87577 | 24.24438 | 37084 ft | 482 kts | 144° |
| 2026-04-30 09:47 | 39.82361 | 24.29934 | 37078 ft | 482 kts | 144° |
| 2026-04-30 09:47 | 39.77136 | 24.35429 | 37079 ft | 482 kts | 144° |
| 2026-04-30 09:48 | 39.71923 | 24.40898 | 37081 ft | 482 kts | 145° |
| 2026-04-30 09:48 | 39.66692 | 24.46377 | 37086 ft | 482 kts | 145° |
| 2026-04-30 09:49 | 39.61463 | 24.51842 | 37082 ft | 482 kts | 145° |
| 2026-04-30 09:49 | 39.56240 | 24.57290 | 37079 ft | 482 kts | 145° |
| 2026-04-30 09:50 | 39.51021 | 24.62723 | 37081 ft | 482 kts | 145° |
| 2026-04-30 09:50 | 39.45781 | 24.68166 | 37065 ft | 482 kts | 145° |
| 2026-04-30 09:51 | 39.40539 | 24.73602 | 37074 ft | 482 kts | 145° |
| 2026-04-30 09:51 | 39.35306 | 24.79018 | 37074 ft | 482 kts | 145° |
| 2026-04-30 09:52 | 39.30067 | 24.84428 | 37076 ft | 482 kts | 145° |
| 2026-04-30 09:52 | 39.24858 | 24.89798 | 37072 ft | 482 kts | 145° |
| 2026-04-30 09:53 | 39.19610 | 24.95196 | 37063 ft | 482 kts | 145° |
| 2026-04-30 09:53 | 39.14356 | 25.00590 | 37072 ft | 482 kts | 145° |
| 2026-04-30 09:54 | 39.09104 | 25.05972 | 37069 ft | 482 kts | 145° |
| 2026-04-30 09:54 | 39.03858 | 25.11337 | 37069 ft | 482 kts | 145° |
| 2026-04-30 09:55 | 38.98640 | 25.16662 | 37064 ft | 482 kts | 145° |
| 2026-04-30 09:55 | 38.93361 | 25.22041 | 37045 ft | 482 kts | 145° |
| 2026-04-30 09:56 | 38.88131 | 25.27358 | 37063 ft | 483 kts | 145° |
| 2026-04-30 09:56 | 38.82854 | 25.32712 | 37061 ft | 483 kts | 146° |
| 2026-04-30 09:57 | 38.77587 | 25.38046 | 37057 ft | 482 kts | 145° |
| 2026-04-30 09:57 | 38.72325 | 25.43366 | 37056 ft | 482 kts | 146° |
| 2026-04-30 09:58 | 38.67056 | 25.48681 | 37028 ft | 482 kts | 146° |
| 2026-04-30 09:58 | 38.61777 | 25.53997 | 37061 ft | 484 kts | 146° |
| 2026-04-30 09:59 | 38.51181 | 25.64637 | 37055 ft | 484 kts | 146° |
| 2026-04-30 10:00 | 38.43240 | 25.72586 | 37059 ft | 484 kts | 146° |
| 2026-04-30 10:01 | 38.35321 | 25.80492 | 37055 ft | 485 kts | 146° |
| 2026-04-30 10:02 | 38.27339 | 25.88437 | 37051 ft | 485 kts | 146° |
| 2026-04-30 10:02 | 38.22174 | 25.94020 | 37062 ft | 487 kts | 142° |
| 2026-04-30 10:03 | 38.17054 | 25.99677 | 37043 ft | 488 kts | 142° |
| 2026-04-30 10:03 | 38.11919 | 26.05319 | 37047 ft | 488 kts | 142° |
| 2026-04-30 10:04 | 38.06770 | 26.10965 | 37057 ft | 490 kts | 142° |
| 2026-04-30 10:04 | 38.01661 | 26.16604 | 37045 ft | 490 kts | 142° |
| 2026-04-30 10:05 | 37.96510 | 26.22275 | 37050 ft | 490 kts | 142° |
| 2026-04-30 10:05 | 37.91355 | 26.27939 | 37043 ft | 490 kts | 142° |
| 2026-04-30 10:06 | 37.86201 | 26.33586 | 37042 ft | 490 kts | 142° |
| 2026-04-30 10:06 | 37.81042 | 26.39217 | 37020 ft | 490 kts | 142° |
| 2026-04-30 10:07 | 37.75875 | 26.44846 | 37049 ft | 491 kts | 142° |
| 2026-04-30 10:07 | 37.70694 | 26.50480 | 37045 ft | 491 kts | 142° |
| 2026-04-30 10:08 | 37.65520 | 26.56106 | 37048 ft | 491 kts | 142° |
| 2026-04-30 10:08 | 37.60339 | 26.61732 | 37044 ft | 491 kts | 142° |
| 2026-04-30 10:09 | 37.55163 | 26.67341 | 37045 ft | 491 kts | 142° |
| 2026-04-30 10:09 | 37.49983 | 26.72944 | 37043 ft | 491 kts | 142° |
| 2026-04-30 10:10 | 37.44837 | 26.78500 | 37044 ft | 491 kts | 142° |
| 2026-04-30 10:10 | 37.39690 | 26.84151 | 37039 ft | 492 kts | 139° |
| 2026-04-30 10:11 | 37.34760 | 26.90130 | 37039 ft | 493 kts | 139° |
| 2026-04-30 10:11 | 37.29792 | 26.96064 | 37042 ft | 493 kts | 139° |
| 2026-04-30 10:12 | 37.24814 | 27.01991 | 37038 ft | 493 kts | 139° |
| 2026-04-30 10:12 | 37.19828 | 27.07917 | 37040 ft | 494 kts | 139° |
| 2026-04-30 10:13 | 37.14832 | 27.13843 | 37037 ft | 494 kts | 139° |
| 2026-04-30 10:13 | 37.10678 | 27.18763 | 37032 ft | 494 kts | 139° |
| 2026-04-30 10:14 | 37.04868 | 27.25629 | 37038 ft | 494 kts | 139° |
| 2026-04-30 10:14 | 36.97364 | 27.34475 | 37034 ft | 494 kts | 139° |
| 2026-04-30 10:15 | 36.93201 | 27.39371 | 37019 ft | 494 kts | 139° |
| 2026-04-30 10:15 | 36.88187 | 27.45260 | 37043 ft | 496 kts | 139° |
| 2026-04-30 10:16 | 36.83156 | 27.51155 | 37031 ft | 495 kts | 139° |
| 2026-04-30 10:17 | 36.75618 | 27.59970 | 37028 ft | 495 kts | 139° |
| 2026-04-30 10:17 | 36.68073 | 27.68767 | 37023 ft | 495 kts | 139° |
| 2026-04-30 10:18 | 36.63038 | 27.74623 | 37023 ft | 495 kts | 139° |
| 2026-04-30 10:19 | 36.55472 | 27.83403 | 37018 ft | 496 kts | 139° |
| 2026-04-30 10:19 | 36.50421 | 27.89251 | 37019 ft | 496 kts | 139° |
| 2026-04-30 10:20 | 36.45370 | 27.95087 | 37025 ft | 496 kts | 139° |
| 2026-04-30 10:20 | 36.37815 | 28.03802 | 37026 ft | 496 kts | 139° |
| 2026-04-30 10:21 | 36.33602 | 28.10511 | 37022 ft | 496 kts | 112° |
| 2026-04-30 10:21 | 36.31374 | 28.18612 | 37013 ft | 498 kts | 108° |
| 2026-04-30 10:22 | 36.29248 | 28.26787 | 37024 ft | 498 kts | 107° |
| 2026-04-30 10:22 | 36.27149 | 28.34963 | 37021 ft | 498 kts | 107° |
| 2026-04-30 10:23 | 36.25045 | 28.43137 | 37030 ft | 497 kts | 107° |
| 2026-04-30 10:23 | 36.22938 | 28.51288 | 37033 ft | 497 kts | 107° |
| 2026-04-30 10:24 | 36.20832 | 28.59393 | 37039 ft | 497 kts | 107° |
| 2026-04-30 10:24 | 36.18711 | 28.67533 | 37044 ft | 497 kts | 107° |
| 2026-04-30 10:25 | 36.16586 | 28.75662 | 37039 ft | 495 kts | 108° |
| 2026-04-30 10:25 | 36.14459 | 28.83772 | 37037 ft | 496 kts | 108° |
| 2026-04-30 10:26 | 36.12326 | 28.91882 | 37048 ft | 496 kts | 108° |
| 2026-04-30 10:26 | 36.10189 | 28.99980 | 37037 ft | 495 kts | 108° |
| 2026-04-30 10:27 | 36.08051 | 29.08059 | 37044 ft | 494 kts | 108° |
| 2026-04-30 10:27 | 36.05908 | 29.16128 | 37047 ft | 494 kts | 108° |
| 2026-04-30 10:28 | 36.03761 | 29.24191 | 37049 ft | 494 kts | 108° |
| 2026-04-30 10:28 | 36.01610 | 29.32245 | 37053 ft | 493 kts | 108° |
| 2026-04-30 10:29 | 35.99455 | 29.40286 | 37054 ft | 493 kts | 108° |
| 2026-04-30 10:29 | 35.97310 | 29.48270 | 37048 ft | 493 kts | 108° |
| 2026-04-30 10:30 | 35.95151 | 29.56304 | 37056 ft | 493 kts | 108° |
| 2026-04-30 10:30 | 35.92999 | 29.64311 | 37052 ft | 491 kts | 108° |
| 2026-04-30 10:31 | 35.90844 | 29.72309 | 37058 ft | 491 kts | 108° |
| 2026-04-30 10:31 | 35.88684 | 29.80303 | 37058 ft | 491 kts | 108° |
| 2026-04-30 10:32 | 35.86518 | 29.88295 | 37051 ft | 490 kts | 109° |
| 2026-04-30 10:32 | 35.84364 | 29.96217 | 37054 ft | 489 kts | 109° |
| 2026-04-30 10:33 | 35.82313 | 30.04219 | 37051 ft | 490 kts | 107° |
| 2026-04-30 10:33 | 35.80300 | 30.12229 | 37044 ft | 490 kts | 108° |
| 2026-04-30 10:34 | 35.78277 | 30.20228 | 37053 ft | 489 kts | 108° |
| 2026-04-30 10:34 | 35.76250 | 30.28219 | 37052 ft | 489 kts | 108° |
| 2026-04-30 10:35 | 35.74216 | 30.36212 | 37053 ft | 489 kts | 108° |
| 2026-04-30 10:35 | 35.72180 | 30.44191 | 37042 ft | 488 kts | 108° |
| 2026-04-30 10:36 | 35.70140 | 30.52158 | 37055 ft | 488 kts | 108° |
| 2026-04-30 10:36 | 35.68098 | 30.60110 | 37051 ft | 488 kts | 108° |
| 2026-04-30 10:37 | 35.66049 | 30.68062 | 37055 ft | 488 kts | 108° |
| 2026-04-30 10:37 | 35.63995 | 30.76013 | 37057 ft | 488 kts | 108° |
| 2026-04-30 10:38 | 35.61878 | 30.83874 | 37038 ft | 487 kts | 116° |
| 2026-04-30 10:38 | 35.58407 | 30.90974 | 37035 ft | 486 kts | 124° |
| 2026-04-30 10:39 | 35.54742 | 30.97948 | 37050 ft | 486 kts | 124° |
| 2026-04-30 10:39 | 35.51028 | 31.04889 | 37061 ft | 487 kts | 125° |
| 2026-04-30 10:40 | 35.47292 | 31.11848 | 37056 ft | 488 kts | 125° |
| 2026-04-30 10:40 | 35.43554 | 31.18796 | 37056 ft | 488 kts | 125° |
| 2026-04-30 10:41 | 35.39810 | 31.25740 | 37061 ft | 488 kts | 125° |
| 2026-04-30 10:41 | 35.36066 | 31.32672 | 37045 ft | 487 kts | 125° |
| 2026-04-30 10:42 | 35.32323 | 31.39588 | 37062 ft | 487 kts | 125° |
| 2026-04-30 10:42 | 35.28575 | 31.46499 | 37059 ft | 487 kts | 125° |
| 2026-04-30 10:43 | 35.24824 | 31.53403 | 37047 ft | 485 kts | 125° |
| 2026-04-30 10:43 | 35.22990 | 31.56773 | 37067 ft | 468 kts | 126° |
| 2026-04-30 10:43 | 35.21198 | 31.60061 | 37070 ft | 462 kts | 126° |
| 2026-04-30 10:44 | 35.17654 | 31.66559 | 37066 ft | 458 kts | 126° |
| 2026-04-30 10:44 | 35.14151 | 31.72971 | 36647 ft | 453 kts | 126° |
| 2026-04-30 10:45 | 35.12401 | 31.76170 | 36100 ft | 451 kts | 125° |
| 2026-04-30 10:45 | 35.10664 | 31.79339 | 35707 ft | 446 kts | 125° |
| 2026-04-30 10:45 | 35.08947 | 31.82472 | 35312 ft | 441 kts | 125° |
| 2026-04-30 10:45 | 35.07249 | 31.85566 | 34918 ft | 436 kts | 125° |
| 2026-04-30 10:46 | 35.05577 | 31.88613 | 34417 ft | 429 kts | 125° |
| 2026-04-30 10:46 | 35.03920 | 31.91628 | 33535 ft | 428 kts | 125° |
| 2026-04-30 10:46 | 35.02261 | 31.94643 | 32533 ft | 429 kts | 125° |
| 2026-04-30 10:46 | 35.00596 | 31.97668 | 31558 ft | 430 kts | 124° |
| 2026-04-30 10:47 | 34.98926 | 32.00698 | 30628 ft | 430 kts | 124° |
| 2026-04-30 10:47 | 34.97260 | 32.03720 | 29642 ft | 429 kts | 124° |
| 2026-04-30 10:47 | 34.95596 | 32.06735 | 28596 ft | 428 kts | 124° |
| 2026-04-30 10:47 | 34.93939 | 32.09735 | 27583 ft | 426 kts | 124° |
| 2026-04-30 10:48 | 34.92231 | 32.12661 | 26610 ft | 422 kts | 131° |
| 2026-04-30 10:48 | 34.90314 | 32.15354 | 25685 ft | 419 kts | 131° |
| 2026-04-30 10:48 | 34.88437 | 32.18048 | 24786 ft | 416 kts | 131° |
| 2026-04-30 10:48 | 34.86584 | 32.20735 | 23911 ft | 412 kts | 130° |
| 2026-04-30 10:49 | 34.84754 | 32.23400 | 22958 ft | 409 kts | 130° |
| 2026-04-30 10:49 | 34.82937 | 32.26050 | 21966 ft | 405 kts | 131° |
| 2026-04-30 10:49 | 34.81140 | 32.28673 | 21003 ft | 402 kts | 131° |
| 2026-04-30 10:49 | 34.79355 | 32.31275 | 20086 ft | 398 kts | 131° |
| 2026-04-30 10:50 | 34.77589 | 32.33849 | 19183 ft | 395 kts | 131° |
| 2026-04-30 10:50 | 34.75829 | 32.36411 | 18289 ft | 392 kts | 131° |
| 2026-04-30 10:50 | 34.74088 | 32.38946 | 17304 ft | 390 kts | 131° |
| 2026-04-30 10:50 | 34.72289 | 32.41388 | 16337 ft | 386 kts | 140° |
| 2026-04-30 10:51 | 34.70092 | 32.43089 | 15678 ft | 374 kts | 155° |
| 2026-04-30 10:51 | 34.67715 | 32.44262 | 14989 ft | 365 kts | 167° |
| 2026-04-30 10:51 | 34.65230 | 32.44446 | 14439 ft | 352 kts | 188° |
| 2026-04-30 10:51 | 34.62952 | 32.43567 | 13980 ft | 338 kts | 209° |
| 2026-04-30 10:52 | 34.61009 | 32.42058 | 13518 ft | 326 kts | 214° |
| 2026-04-30 10:52 | 34.59166 | 32.40521 | 13027 ft | 317 kts | 215° |
| 2026-04-30 10:52 | 34.57379 | 32.39020 | 12592 ft | 307 kts | 215° |
| 2026-04-30 10:52 | 34.55657 | 32.37571 | 12194 ft | 298 kts | 215° |
| 2026-04-30 10:53 | 34.53977 | 32.36147 | 11834 ft | 288 kts | 215° |
| 2026-04-30 10:53 | 34.52435 | 32.34679 | 11487 ft | 277 kts | 230° |
| 2026-04-30 10:53 | 34.51664 | 32.32640 | 11278 ft | 260 kts | 264° |
| 2026-04-30 10:53 | 34.51695 | 32.30507 | 10955 ft | 251 kts | 275° |
| 2026-04-30 10:54 | 34.52078 | 32.28450 | 10419 ft | 251 kts | 291° |
| 2026-04-30 10:54 | 34.52690 | 32.26460 | 9883 ft | 253 kts | 290° |
| 2026-04-30 10:54 | 34.53365 | 32.24480 | 9281 ft | 255 kts | 298° |
| 2026-04-30 10:54 | 34.54336 | 32.22666 | 8689 ft | 257 kts | 305° |
| 2026-04-30 10:55 | 34.55372 | 32.20900 | 8169 ft | 257 kts | 305° |
| 2026-04-30 10:55 | 34.56390 | 32.19172 | 7763 ft | 252 kts | 305° |
| 2026-04-30 10:55 | 34.57398 | 32.17461 | 7397 ft | 246 kts | 305° |
| 2026-04-30 10:55 | 34.58378 | 32.15811 | 7045 ft | 236 kts | 307° |
| 2026-04-30 10:56 | 34.59652 | 32.14661 | 6637 ft | 228 kts | 345° |
| 2026-04-30 10:56 | 34.61184 | 32.14685 | 6240 ft | 217 kts | 22° |
| 2026-04-30 10:56 | 34.62414 | 32.15630 | 5901 ft | 205 kts | 42° |
| 2026-04-30 10:56 | 34.63475 | 32.16709 | 5686 ft | 192 kts | 43° |
| 2026-04-30 10:57 | 34.64472 | 32.17732 | 5527 ft | 189 kts | 43° |
| 2026-04-30 10:57 | 34.65498 | 32.18779 | 5451 ft | 196 kts | 44° |
| 2026-04-30 10:57 | 34.66257 | 32.20101 | 5313 ft | 190 kts | 82° |
| 2026-04-30 10:57 | 34.66289 | 32.21694 | 5247 ft | 193 kts | 96° |
| 2026-04-30 10:58 | 34.66201 | 32.23346 | 5182 ft | 199 kts | 96° |
| 2026-04-30 10:58 | 34.66105 | 32.25024 | 5096 ft | 199 kts | 96° |
| 2026-04-30 10:58 | 34.66011 | 32.26707 | 4998 ft | 199 kts | 96° |
| 2026-04-30 10:58 | 34.65921 | 32.28390 | 4907 ft | 199 kts | 96° |
| 2026-04-30 10:59 | 34.65833 | 32.30068 | 4815 ft | 199 kts | 96° |
| 2026-04-30 10:59 | 34.65745 | 32.31742 | 4712 ft | 199 kts | 96° |
| 2026-04-30 10:59 | 34.65658 | 32.33396 | 4607 ft | 198 kts | 96° |
| 2026-04-30 10:59 | 34.65565 | 32.35066 | 4524 ft | 199 kts | 96° |
| 2026-04-30 11:00 | 34.65459 | 32.36741 | 4418 ft | 199 kts | 96° |
| 2026-04-30 11:00 | 34.65350 | 32.38414 | 4306 ft | 199 kts | 96° |
| 2026-04-30 11:00 | 34.65276 | 32.39543 | 4260 ft | 199 kts | 96° |
| 2026-04-30 11:00 | 34.65165 | 32.41220 | 4157 ft | 199 kts | 96° |
| 2026-04-30 11:01 | 34.65054 | 32.42893 | 4065 ft | 199 kts | 96° |
| 2026-04-30 11:01 | 34.64941 | 32.44568 | 3963 ft | 199 kts | 96° |
| 2026-04-30 11:01 | 34.64825 | 32.46243 | 3862 ft | 199 kts | 96° |
| 2026-04-30 11:01 | 34.64616 | 32.47897 | 3765 ft | 198 kts | 104° |
| 2026-04-30 11:02 | 34.64288 | 32.49522 | 3669 ft | 198 kts | 105° |
| 2026-04-30 11:02 | 34.63839 | 32.51070 | 3556 ft | 194 kts | 116° |
| 2026-04-30 11:02 | 34.63259 | 32.52498 | 3451 ft | 183 kts | 120° |
| 2026-04-30 11:02 | 34.62595 | 32.53795 | 3351 ft | 180 kts | 123° |
| 2026-04-30 11:03 | 34.61936 | 32.55064 | 3265 ft | 177 kts | 123° |
| 2026-04-30 11:03 | 34.61288 | 32.56325 | 3096 ft | 176 kts | 122° |
| 2026-04-30 11:03 | 34.60646 | 32.57584 | 2946 ft | 175 kts | 122° |
| 2026-04-30 11:04 | 34.59374 | 32.60098 | 2739 ft | 175 kts | 122° |
| 2026-04-30 11:04 | 34.58728 | 32.61351 | 2644 ft | 175 kts | 119° |
| 2026-04-30 11:04 | 34.58264 | 32.62713 | 2534 ft | 175 kts | 105° |
| 2026-04-30 11:04 | 34.58114 | 32.64181 | 2435 ft | 176 kts | 88° |
| 2026-04-30 11:05 | 34.58343 | 32.65638 | 2371 ft | 177 kts | 70° |
| 2026-04-30 11:05 | 34.58909 | 32.66958 | 2361 ft | 178 kts | 54° |
| 2026-04-30 11:05 | 34.59761 | 32.68046 | 2349 ft | 178 kts | 39° |
| 2026-04-30 11:05 | 34.60830 | 32.68806 | 2282 ft | 179 kts | 22° |
| 2026-04-30 11:06 | 34.62019 | 32.69176 | 2183 ft | 179 kts | 6° |
| 2026-04-30 11:06 | 34.63261 | 32.69130 | 2087 ft | 179 kts | 350° |
| 2026-04-30 11:06 | 34.64441 | 32.68666 | 2011 ft | 179 kts | 333° |
| 2026-04-30 11:06 | 34.65463 | 32.67821 | 1992 ft | 178 kts | 316° |
| 2026-04-30 11:07 | 34.66223 | 32.66640 | 2009 ft | 178 kts | 300° |
| 2026-04-30 11:07 | 34.66736 | 32.65290 | 1991 ft | 170 kts | 290° |
| 2026-04-30 11:07 | 34.67114 | 32.63997 | 2023 ft | 157 kts | 289° |
| 2026-04-30 11:07 | 34.67484 | 32.62751 | 2075 ft | 157 kts | 289° |
| 2026-04-30 11:08 | 34.67860 | 32.61506 | 1959 ft | 157 kts | 289° |
| 2026-04-30 11:08 | 34.68237 | 32.60261 | 1756 ft | 156 kts | 287° |
| 2026-04-30 11:08 | 34.68609 | 32.59027 | 1587 ft | 156 kts | 289° |
| 2026-04-30 11:08 | 34.68986 | 32.57800 | 1400 ft | 154 kts | 288° |
| 2026-04-30 11:09 | 34.69355 | 32.56577 | 1202 ft | 153 kts | 288° |
| 2026-04-30 11:09 | 34.69718 | 32.55367 | 1008 ft | 152 kts | 287° |
| 2026-04-30 11:09 | 34.70077 | 32.54185 | 812 ft | 151 kts | 289° |
| 2026-04-30 11:09 | 34.70458 | 32.52981 | 647 ft | 151 kts | 290° |
| 2026-04-30 11:10 | 34.70813 | 32.51826 | 409 ft | 140 kts | 287° |
| 2026-04-30 11:10 | 34.71133 | 32.50740 | 228 ft | 134 kts | 288° |
| 2026-04-30 11:10 | 34.71460 | 32.49658 | 66 ft | 137 kts | 288° |
| 2026-04-30 11:10 | 34.71762 | 32.48661 | 46 ft | 98 kts | 290° |
| 2026-04-30 11:11 | 34.71891 | 32.48261 | 45 ft | 12 kts | 307° |
| 2026-04-30 11:11 | 34.71887 | 32.48243 | 48 ft | 3 kts | 219° |
| 2026-04-30 11:11 | 34.71872 | 32.48251 | 45 ft | 3 kts | 114° |
| 2026-04-30 11:11 | 34.71858 | 32.48327 | 45 ft | 16 kts | 100° |
| 2026-04-30 11:12 | 34.71829 | 32.48410 | 47 ft | 8 kts | 146° |
| 2026-04-30 11:12 | 34.71766 | 32.48404 | 49 ft | 15 kts | 200° |
| 2026-04-30 11:12 | 34.71663 | 32.48405 | 48 ft | 12 kts | 135° |
| 2026-04-30 11:12 | 34.71642 | 32.48482 | 44 ft | 11 kts | 97° |
| 2026-04-30 11:13 | 34.71615 | 32.48569 | 48 ft | 13 kts | 113° |
| 2026-04-30 11:13 | 34.71580 | 32.48684 | 47 ft | 16 kts | 109° |
| 2026-04-30 11:13 | 34.71538 | 32.48830 | 46 ft | 20 kts | 110° |
| 2026-04-30 11:13 | 34.71501 | 32.48880 | 48 ft | 5 kts | 176° |
| 2026-04-30 11:14 | 34.71462 | 32.48819 | 48 ft | 16 kts | 245° |
| 2026-04-30 11:14 | 34.71430 | 32.48734 | 47 ft | 5 kts | 244° |
| 2026-04-30 11:14 | 34.71425 | 32.48729 | 48 ft | 0 kts | 206° |
| 2026-04-30 11:14 | 34.71414 | 32.48726 | 48 ft | 4 kts | 194° |
| 2026-04-30 11:15 | 34.71392 | 32.48737 | 46 ft | 5 kts | 147° |
| 2026-04-30 11:15 | 34.71367 | 32.48755 | 48 ft | 2 kts | 155° |
| 2026-04-30 11:15 | 34.71349 | 32.48764 | 48 ft | 0 kts | 154° |